Capitol Logistics 116


KLAX
Los Angeles International Airport
Los Angeles, California, US
PHNL
Daniel K Inouye International Airport
Honolulu, Hawaii, US

Activity Log

Date Flight Route Aircraft Duration
09/07/2020 CPX226 VTU8 DINTY R576 DENNS INOYI1 B763 5h 37m
04/10/2020 CPX116 SUMMR1 DINTY DUETS R576 DENNS MAGGI3 B744 4h 26m
11/22/2019 CPX116 SUMMR1 DINTY DUETS R576 DENNS MAGGI3 B744 5h 49m
07/12/2019 CPX226 SUMMR1 DINTY DUETS R576 DENNS MAGGI3 B763 5h 37m
06/24/2019 CPX226 SUMMR1 DINTY DUETS R576 DENNS MAGGI3 B763 5h 50m
04/02/2019 CPX226 SUMMR1 DINTY DUETS R576 DENNS MAGGI3 B763 6h 04m
03/27/2019 CPX116 SUMMR1 DINTY DUETS R576 DENNS MAGGI3 B744 5h 50m
01/19/2019 CPX226 VTU8 DINTY DUETS R576 DIALO/N0477F320 R576 DENNS MAGGI3 B763 5h 46m
12/24/2018 CPX116 SUMMR1 DINTY DUETS R576 DENNS MAGGI3 MD11 5h 12m
12/03/2018 CPX126 DINTY R576 DENNS B763 5h 40m

Route Details

Aircraft Information
Primary: Boeing 747-400BCF
Backup: Boeing 777-200LRF
Route Data
Distance: 2267nm
Sched. Duration: 6h 00m
Avg. Duration: 5h 35m (-64m)
Times Flown: 10
Recm'd Route: SUMMR1 DINTY DUETS R576 DENNS MAGGI3
Planned Altitude: 32,000ft
Origin Wx: KLAX 221753Z 00000KT 10SM BKN030 20/14 A2989 RMK AO2 SLP121 T02000144 10206 20194 50012
Dest. Wx: PHNL 221753Z 01004KT 10SM FEW025 SCT040 BKN110 26/22 A2993 RMK AO2 SLP133 T02560217 10256 20233 53011
Notes:

Financial History
Total Freight: 1,325,061lbs
Average Load: 132,506lbs/flt
Fuel Used: 835,436lbs
Avg. Fuel Used: 83,544lbs/flt
Fuel Expense: $985,154
Avg. Fuel Expense: $98,515
Avg. Fuel Cost: $1.18/lbs
Total Gross Income: $1,717,402
Pilot Pay: $2,010
Total Expenses: $185,999
Total Revenue: $534,146
Average Revenue: $171,740.23